Superferry II — SWKV — position and weather

sailwx.info

Track history (hours):
 
Tides and Currents Weather Stations Pressure Air Temp Water Temp Dewpoint Dewpoint Depression Visibility Wind Speed Wind Dir Waves Ship Positions

Superferry II

Last reported at 2017-Aug-17 20:26 UTC. Time now 2017-Aug-18 03:02 UTC.
Position N 38°01' E 024°01'.

Length 122 m; draft 4.7 m.

Type: Passenger vessel. MMSI: 237001000.

Date/timePositionNaut miles runAvg speedWind from/ knotsBaromVisibWave heightAir tempDewpointWater temp
2017-Aug-17 20:26N 38°01' E 024°01'7 1.8
2017-Aug-17 16:41N 37°60' E 024°09'420.1
2017-Aug-17 16:30N 38°01' E 024°04'2 2.2
2017-Aug-17 15:29N 38°01' E 024°02'4214.9
2017-Aug-17 12:40N 37°45' E 024°51'919.5
2017-Aug-17 12:12N 37°38' E 024°59'419.4
2017-Aug-17 12:00N 37°36' E 025°02'713.6
2017-Aug-17 11:31N 37°32' E 025°09'611.6
2017-Aug-17 11:00N 37°29' E 025°15'3 6.8
2017-Aug-17 10:30N 37°28' E 025°19'0 0.0
2017-Aug-17 10:00N 37°28' E 025°19'0 0.3
2017-Aug-17 09:31N 37°28' E 025°19'816.6
2017-Aug-17 09:00N 37°31' E 025°10'3 6.6
2017-Aug-17 08:30N 37°33' E 025°06'5316.3
2017-Aug-17 05:15N 37°60' E 024°08'519.8
2017-Aug-17 05:00N 38°01' E 024°03'1 0.2
2017-Aug-16 20:26N 38°01' E 024°01'6 1.7
2017-Aug-16 16:39N 37°60' E 024°08'320.0
2017-Aug-16 16:30N 38°00' E 024°05'3 3.1
2017-Aug-16 15:28N 38°01' E 024°01'4415.3
2017-Aug-16 12:35N 37°44' E 024°52'1219.2
2017-Aug-16 11:59N 37°36' E 025°02'713.7
2017-Aug-16 11:30N 37°32' E 025°09'611.5
2017-Aug-16 11:00N 37°29' E 025°15'3 6.9
2017-Aug-16 10:30N 37°28' E 025°19'0 0.0
2017-Aug-16 10:01N 37°28' E 025°19'0 0.0
2017-Aug-16 09:31N 37°28' E 025°19'714.0
2017-Aug-16 09:00N 37°31' E 025°11'4 8.3
2017-Aug-16 08:31N 37°33' E 025°07'5716.3
2017-Aug-16 05:02N 38°01' E 024°04'54 3.2
2017-Aug-15 12:04N 37°34' E 025°05'119.0
2017-Aug-15 12:00N 37°33' E 025°06'3 6.1
2017-Aug-15 11:30N 37°32' E 025°09'612.6
2017-Aug-15 11:01N 37°29' E 025°16'3 6.0
2017-Aug-15 10:31N 37°28' E 025°19'0 0.0
2017-Aug-15 10:01N 37°28' E 025°19'0 0.0
2017-Aug-15 09:31N 37°28' E 025°19'611.3
2017-Aug-15 09:00N 37°29' E 025°13'4 8.8
2017-Aug-15 08:30N 37°32' E 025°08'5716.8
2017-Aug-15 05:08N 37°60' E 024°06'320.1
2017-Aug-15 05:00N 38°01' E 024°03'2 0.1
2017-Aug-14 16:30N 38°00' E 024°05'5411.8
2017-Aug-14 11:56N 37°34' E 025°04'410.5
2017-Aug-14 11:30N 37°32' E 025°09'713.2
2017-Aug-14 11:00N 37°29' E 025°16'3 5.0
2017-Aug-14 10:30N 37°28' E 025°19'0 0.0
2017-Aug-14 10:00N 37°28' E 025°19'0 0.0
2017-Aug-14 09:30N 37°28' E 025°19'713.1
2017-Aug-14 09:00N 37°30' E 025°12'3 6.8
2017-Aug-14 08:30N 37°32' E 025°08'61 5.0
2017-Aug-13 20:22N 38°01' E 024°01'3 0.5
2017-Aug-13 15:22N 38°01' E 024°04'4014.9
2017-Aug-13 12:39N 37°45' E 024°51'920.2
2017-Aug-13 12:13N 37°39' E 024°58'419.7
2017-Aug-13 12:01N 37°36' E 025°02'713.4
2017-Aug-13 11:30N 37°32' E 025°09'612.5
2017-Aug-13 11:00N 37°29' E 025°16'3 5.8
2017-Aug-13 10:30N 37°28' E 025°19'0 0.0
2017-Aug-13 10:00N 37°28' E 025°19'0 0.2
2017-Aug-13 09:31N 37°28' E 025°19'918.3
2017-Aug-13 09:01N 37°32' E 025°09'4 8.4
2017-Aug-13 08:30N 37°34' E 025°05'15 0.8
2017-Aug-12 13:51N 37°45' E 024°51'1019.8
2017-Aug-12 13:22N 37°38' E 024°59'719.1
2017-Aug-12 13:00N 37°33' E 025°06'4 8.4
2017-Aug-12 12:30N 37°31' E 025°10'811.1
2017-Aug-12 11:46N 37°28' E 025°20'0 0.0
2017-Aug-12 11:17N 37°28' E 025°20'0 0.0
2017-Aug-12 10:58N 37°28' E 025°20'0 0.0
2017-Aug-12 10:30N 37°28' E 025°20'0 0.0
2017-Aug-12 09:52N 37°28' E 025°20'714.9
2017-Aug-12 09:23N 37°31' E 025°11'2 5.9
2017-Aug-12 09:00N 37°32' E 025°09'19 0.9
2017-Aug-11 12:46N 37°45' E 024°51'919.3
2017-Aug-11 12:18N 37°38' E 024°59'618.6
2017-Aug-11 12:00N 37°34' E 025°04'5 9.4
2017-Aug-11 11:30N 37°32' E 025°09'611.3
2017-Aug-11 11:00N 37°29' E 025°15'3 6.9
2017-Aug-11 10:30N 37°28' E 025°19'0 0.0
2017-Aug-11 10:00N 37°28' E 025°19'0 0.0
2017-Aug-11 09:30N 37°28' E 025°19'714.6
2017-Aug-11 09:00N 37°31' E 025°11'21 1.1
2017-Aug-10 12:44N 37°45' E 024°51'919.9
2017-Aug-10 12:18N 37°39' E 024°59'518.6
2017-Aug-10 12:00N 37°35' E 025°04'510.5
2017-Aug-10 11:30N 37°32' E 025°09'611.8
2017-Aug-10 11:00N 37°29' E 025°15'3 6.8
2017-Aug-10 10:30N 37°28' E 025°19'0 0.0
2017-Aug-10 10:00N 37°28' E 025°19'4 7.6
2017-Aug-10 09:28N 37°29' E 025°14'511.6
2017-Aug-10 09:00N 37°32' E 025°09'18 0.9
2017-Aug-09 12:39N 37°44' E 024°52'819.8
2017-Aug-09 12:14N 37°38' E 024°59'419.0
2017-Aug-09 12:00N 37°35' E 025°03'611.8
2017-Aug-09 11:30N 37°32' E 025°09'611.6
2017-Aug-09 11:00N 37°29' E 025°15'3 6.8
2017-Aug-09 10:30N 37°28' E 025°19'0 0.0
2017-Aug-09 10:00N 37°28' E 025°19'0 0.2
2017-Aug-09 09:30N 37°28' E 025°19'917.8
2017-Aug-09 09:00N 37°32' E 025°09'3 6.4
2017-Aug-09 08:30N 37°33' E 025°06'17 0.8
2017-Aug-08 12:38N 37°45' E 024°51'1119.6
2017-Aug-08 12:04N 37°37' E 025°01'119.8
2017-Aug-08 12:00N 37°36' E 025°02'714.8
2017-Aug-08 11:30N 37°32' E 025°09'611.4
2017-Aug-08 11:00N 37°29' E 025°15'4 7.1
2017-Aug-08 10:30N 37°28' E 025°20'0 0.0
2017-Aug-08 10:00N 37°28' E 025°20'0 0.3
2017-Aug-08 09:30N 37°28' E 025°20'917.8
2017-Aug-08 09:00N 37°32' E 025°10'4 7.1
2017-Aug-08 08:30N 37°33' E 025°06'  
Track history (hours):
 
Tides and Currents Weather Stations Pressure Air Temp Water Temp Dewpoint Dewpoint Depression Visibility Wind Speed Wind Dir Waves Ship Positions

Superferry II

Last reported at 2017-Aug-17 20:26 UTC. Time now 2017-Aug-18 03:02 UTC.
Position N 38°01' E 024°01'.

Length 122 m; draft 4.7 m.

Type: Passenger vessel. MMSI: 237001000.

Date/timePositionNaut miles runAvg speedWind from/ knotsBaromVisibWave heightAir tempDewpointWater temp
2017-Aug-17 20:26N 38°01' E 024°01'7 1.8
2017-Aug-17 16:41N 37°60' E 024°09'420.1
2017-Aug-17 16:30N 38°01' E 024°04'2 2.2
2017-Aug-17 15:29N 38°01' E 024°02'4214.9
2017-Aug-17 12:40N 37°45' E 024°51'919.5
2017-Aug-17 12:12N 37°38' E 024°59'419.4
2017-Aug-17 12:00N 37°36' E 025°02'713.6
2017-Aug-17 11:31N 37°32' E 025°09'611.6
2017-Aug-17 11:00N 37°29' E 025°15'3 6.8
2017-Aug-17 10:30N 37°28' E 025°19'0 0.0
2017-Aug-17 10:00N 37°28' E 025°19'0 0.3
2017-Aug-17 09:31N 37°28' E 025°19'816.6
2017-Aug-17 09:00N 37°31' E 025°10'3 6.6
2017-Aug-17 08:30N 37°33' E 025°06'5316.3
2017-Aug-17 05:15N 37°60' E 024°08'519.8
2017-Aug-17 05:00N 38°01' E 024°03'1 0.2
2017-Aug-16 20:26N 38°01' E 024°01'6 1.7
2017-Aug-16 16:39N 37°60' E 024°08'320.0
2017-Aug-16 16:30N 38°00' E 024°05'3 3.1
2017-Aug-16 15:28N 38°01' E 024°01'4415.3
2017-Aug-16 12:35N 37°44' E 024°52'1219.2
2017-Aug-16 11:59N 37°36' E 025°02'713.7
2017-Aug-16 11:30N 37°32' E 025°09'611.5
2017-Aug-16 11:00N 37°29' E 025°15'3 6.9
2017-Aug-16 10:30N 37°28' E 025°19'0 0.0
2017-Aug-16 10:01N 37°28' E 025°19'0 0.0
2017-Aug-16 09:31N 37°28' E 025°19'714.0
2017-Aug-16 09:00N 37°31' E 025°11'4 8.3
2017-Aug-16 08:31N 37°33' E 025°07'5716.3
2017-Aug-16 05:02N 38°01' E 024°04'54 3.2
2017-Aug-15 12:04N 37°34' E 025°05'119.0
2017-Aug-15 12:00N 37°33' E 025°06'3 6.1
2017-Aug-15 11:30N 37°32' E 025°09'612.6
2017-Aug-15 11:01N 37°29' E 025°16'3 6.0
2017-Aug-15 10:31N 37°28' E 025°19'0 0.0
2017-Aug-15 10:01N 37°28' E 025°19'0 0.0
2017-Aug-15 09:31N 37°28' E 025°19'611.3
2017-Aug-15 09:00N 37°29' E 025°13'4 8.8
2017-Aug-15 08:30N 37°32' E 025°08'5716.8
2017-Aug-15 05:08N 37°60' E 024°06'320.1
2017-Aug-15 05:00N 38°01' E 024°03'2 0.1
2017-Aug-14 16:30N 38°00' E 024°05'5411.8
2017-Aug-14 11:56N 37°34' E 025°04'410.5
2017-Aug-14 11:30N 37°32' E 025°09'713.2
2017-Aug-14 11:00N 37°29' E 025°16'3 5.0
2017-Aug-14 10:30N 37°28' E 025°19'0 0.0
2017-Aug-14 10:00N 37°28' E 025°19'0 0.0
2017-Aug-14 09:30N 37°28' E 025°19'713.1
2017-Aug-14 09:00N 37°30' E 025°12'3 6.8
2017-Aug-14 08:30N 37°32' E 025°08'61 5.0
2017-Aug-13 20:22N 38°01' E 024°01'3 0.5
2017-Aug-13 15:22N 38°01' E 024°04'4014.9
2017-Aug-13 12:39N 37°45' E 024°51'920.2
2017-Aug-13 12:13N 37°39' E 024°58'419.7
2017-Aug-13 12:01N 37°36' E 025°02'713.4
2017-Aug-13 11:30N 37°32' E 025°09'612.5
2017-Aug-13 11:00N 37°29' E 025°16'3 5.8
2017-Aug-13 10:30N 37°28' E 025°19'0 0.0
2017-Aug-13 10:00N 37°28' E 025°19'0 0.2
2017-Aug-13 09:31N 37°28' E 025°19'918.3
2017-Aug-13 09:01N 37°32' E 025°09'4 8.4
2017-Aug-13 08:30N 37°34' E 025°05'15 0.8
2017-Aug-12 13:51N 37°45' E 024°51'1019.8
2017-Aug-12 13:22N 37°38' E 024°59'719.1
2017-Aug-12 13:00N 37°33' E 025°06'4 8.4
2017-Aug-12 12:30N 37°31' E 025°10'811.1
2017-Aug-12 11:46N 37°28' E 025°20'0 0.0
2017-Aug-12 11:17N 37°28' E 025°20'0 0.0
2017-Aug-12 10:58N 37°28' E 025°20'0 0.0
2017-Aug-12 10:30N 37°28' E 025°20'0 0.0
2017-Aug-12 09:52N 37°28' E 025°20'714.9
2017-Aug-12 09:23N 37°31' E 025°11'2 5.9
2017-Aug-12 09:00N 37°32' E 025°09'19 0.9
2017-Aug-11 12:46N 37°45' E 024°51'919.3
2017-Aug-11 12:18N 37°38' E 024°59'618.6
2017-Aug-11 12:00N 37°34' E 025°04'5 9.4
2017-Aug-11 11:30N 37°32' E 025°09'611.3
2017-Aug-11 11:00N 37°29' E 025°15'3 6.9
2017-Aug-11 10:30N 37°28' E 025°19'0 0.0
2017-Aug-11 10:00N 37°28' E 025°19'0 0.0
2017-Aug-11 09:30N 37°28' E 025°19'714.6
2017-Aug-11 09:00N 37°31' E 025°11'21 1.1
2017-Aug-10 12:44N 37°45' E 024°51'919.9
2017-Aug-10 12:18N 37°39' E 024°59'518.6
2017-Aug-10 12:00N 37°35' E 025°04'510.5
2017-Aug-10 11:30N 37°32' E 025°09'611.8
2017-Aug-10 11:00N 37°29' E 025°15'3 6.8
2017-Aug-10 10:30N 37°28' E 025°19'0 0.0
2017-Aug-10 10:00N 37°28' E 025°19'4 7.6
2017-Aug-10 09:28N 37°29' E 025°14'511.6
2017-Aug-10 09:00N 37°32' E 025°09'18 0.9
2017-Aug-09 12:39N 37°44' E 024°52'819.8
2017-Aug-09 12:14N 37°38' E 024°59'419.0
2017-Aug-09 12:00N 37°35' E 025°03'611.8
2017-Aug-09 11:30N 37°32' E 025°09'611.6
2017-Aug-09 11:00N 37°29' E 025°15'3 6.8
2017-Aug-09 10:30N 37°28' E 025°19'0 0.0
2017-Aug-09 10:00N 37°28' E 025°19'0 0.2
2017-Aug-09 09:30N 37°28' E 025°19'917.8
2017-Aug-09 09:00N 37°32' E 025°09'3 6.4
2017-Aug-09 08:30N 37°33' E 025°06'17 0.8
2017-Aug-08 12:38N 37°45' E 024°51'1119.6
2017-Aug-08 12:04N 37°37' E 025°01'119.8
2017-Aug-08 12:00N 37°36' E 025°02'714.8
2017-Aug-08 11:30N 37°32' E 025°09'611.4
2017-Aug-08 11:00N 37°29' E 025°15'4 7.1
2017-Aug-08 10:30N 37°28' E 025°20'0 0.0
2017-Aug-08 10:00N 37°28' E 025°20'0 0.3
2017-Aug-08 09:30N 37°28' E 025°20'917.8
2017-Aug-08 09:00N 37°32' E 025°10'4 7.1
2017-Aug-08 08:30N 37°33' E 025°06'  

Dump ship's entire track history